Terminal Aerodrome Forecast
Issued by NWS St Louis, MO

Home | Current Version | Previous Version | Text Only | Print | Product List | Glossary On
Versions: 1 2 3 4 5 6 7 8 9 10 11 12 13 14 15 16 17 18 19 20 21 22 23 24 25
000
FTUS43 KLSX 271407 AAB
TAFSTL
TAF AMD
KSTL 271407Z 2714/2818 VRB05KT 6SM -RA BR SCT020 OVC050
     FM271600 24006KT P6SM VCSH OVC020
     FM280000 32006KT P6SM OVC020
     FM281200 36009KT P6SM BKN035=

USA.gov is the U.S. government's official web portal to all federal, state and local government web resources and services.